sensor_id;sensor_type;location;lat;lon;timestamp;temperature;humidity
7920;DHT22;18778;47.610;9.776;2023-04-03T00:03:38;4.80;99.90
7920;DHT22;18778;47.610;9.776;2023-04-03T00:06:05;4.80;99.90
7920;DHT22;18778;47.610;9.776;2023-04-03T00:08:32;4.70;99.90
7920;DHT22;18778;47.610;9.776;2023-04-03T00:10:58;4.60;99.90
7920;DHT22;18778;47.610;9.776;2023-04-03T00:15:51;4.70;99.90
7920;DHT22;18778;47.610;9.776;2023-04-03T00:18:17;4.60;99.90
7920;DHT22;18778;47.610;9.776;2023-04-03T00:20:42;4.60;99.90
7920;DHT22;18778;47.610;9.776;2023-04-03T00:23:08;4.60;99.90
7920;DHT22;18778;47.610;9.776;2023-04-03T00:25:34;4.50;99.90
7920;DHT22;18778;47.610;9.776;2023-04-03T00:28:00;4.30;99.90
7920;DHT22;18778;47.610;9.776;2023-04-03T00:35:22;4.30;99.90
7920;DHT22;18778;47.610;9.776;2023-04-03T00:40:15;4.30;99.90
7920;DHT22;18778;47.610;9.776;2023-04-03T00:42:42;4.30;99.90
7920;DHT22;18778;47.610;9.776;2023-04-03T00:47:37;4.00;99.90
7920;DHT22;18778;47.610;9.776;2023-04-03T00:50:04;4.00;99.90
7920;DHT22;18778;47.610;9.776;2023-04-03T00:52:30;3.80;99.90
7920;DHT22;18778;47.610;9.776;2023-04-03T00:55:00;3.70;99.90
7920;DHT22;18778;47.610;9.776;2023-04-03T00:57:28;3.50;99.90
7920;DHT22;18778;47.610;9.776;2023-04-03T01:00:03;3.60;99.90
7920;DHT22;18778;47.610;9.776;2023-04-03T01:02:29;3.40;99.90
7920;DHT22;18778;47.610;9.776;2023-04-03T01:04:55;3.40;99.90
7920;DHT22;18778;47.610;9.776;2023-04-03T01:07:29;3.30;99.90
7920;DHT22;18778;47.610;9.776;2023-04-03T01:10:00;3.20;99.90
7920;DHT22;18778;47.610;9.776;2023-04-03T01:12:29;3.10;99.90
7920;DHT22;18778;47.610;9.776;2023-04-03T01:15:04;2.80;99.90
7920;DHT22;18778;47.610;9.776;2023-04-03T01:17:39;2.90;99.90
7920;DHT22;18778;47.610;9.776;2023-04-03T01:25:45;2.70;99.90
7920;DHT22;18778;47.610;9.776;2023-04-03T01:28:26;2.60;99.90
7920;DHT22;18778;47.610;9.776;2023-04-03T01:31:14;2.60;99.90
7920;DHT22;18778;47.610;9.776;2023-04-03T01:33:46;2.50;99.90
7920;DHT22;18778;47.610;9.776;2023-04-03T01:36:21;2.50;99.90
7920;DHT22;18778;47.610;9.776;2023-04-03T01:41:13;2.30;99.90
7920;DHT22;18778;47.610;9.776;2023-04-03T01:43:39;2.20;99.90
7920;DHT22;18778;47.610;9.776;2023-04-03T01:46:05;2.10;99.90
7920;DHT22;18778;47.610;9.776;2023-04-03T01:48:30;2.10;99.90
7920;DHT22;18778;47.610;9.776;2023-04-03T01:50:56;2.00;99.90
7920;DHT22;18778;47.610;9.776;2023-04-03T01:53:21;1.90;99.90
7920;DHT22;18778;47.610;9.776;2023-04-03T01:55:48;1.90;99.90
7920;DHT22;18778;47.610;9.776;2023-04-03T01:58:13;1.70;99.90
7920;DHT22;18778;47.610;9.776;2023-04-03T02:00:39;1.80;99.90
7920;DHT22;18778;47.610;9.776;2023-04-03T02:03:04;1.70;99.90
7920;DHT22;18778;47.610;9.776;2023-04-03T02:05:30;1.70;99.90
7920;DHT22;18778;47.610;9.776;2023-04-03T02:10:22;1.60;99.90
7920;DHT22;18778;47.610;9.776;2023-04-03T02:12:47;1.60;99.90
7920;DHT22;18778;47.610;9.776;2023-04-03T02:17:39;1.60;99.90
7920;DHT22;18778;47.610;9.776;2023-04-03T02:20:05;1.50;99.90
7920;DHT22;18778;47.610;9.776;2023-04-03T02:22:31;1.50;99.90
7920;DHT22;18778;47.610;9.776;2023-04-03T02:24:56;1.50;99.90
7920;DHT22;18778;47.610;9.776;2023-04-03T02:27:22;1.40;99.90
7920;DHT22;18778;47.610;9.776;2023-04-03T02:29:47;1.30;99.90
7920;DHT22;18778;47.610;9.776;2023-04-03T02:32:13;1.30;99.90
7920;DHT22;18778;47.610;9.776;2023-04-03T02:34:38;1.30;99.90
7920;DHT22;18778;47.610;9.776;2023-04-03T02:37:04;1.30;99.90
7920;DHT22;18778;47.610;9.776;2023-04-03T02:39:30;1.30;99.90
7920;DHT22;18778;47.610;9.776;2023-04-03T02:41:56;1.20;99.90
7920;DHT22;18778;47.610;9.776;2023-04-03T02:46:49;1.20;99.90
7920;DHT22;18778;47.610;9.776;2023-04-03T02:49:14;1.20;99.90
7920;DHT22;18778;47.610;9.776;2023-04-03T02:51:40;1.20;99.90
7920;DHT22;18778;47.610;9.776;2023-04-03T02:54:06;1.00;99.90
7920;DHT22;18778;47.610;9.776;2023-04-03T02:56:32;1.10;99.90
7920;DHT22;18778;47.610;9.776;2023-04-03T02:58:57;1.10;99.90
7920;DHT22;18778;47.610;9.776;2023-04-03T03:06:16;1.00;99.90
7920;DHT22;18778;47.610;9.776;2023-04-03T03:08:42;0.90;99.90
7920;DHT22;18778;47.610;9.776;2023-04-03T03:11:09;1.00;99.90
7920;DHT22;18778;47.610;9.776;2023-04-03T03:13:34;1.00;99.90
7920;DHT22;18778;47.610;9.776;2023-04-03T03:16:00;0.90;99.90
7920;DHT22;18778;47.610;9.776;2023-04-03T03:18:27;0.90;99.90
7920;DHT22;18778;47.610;9.776;2023-04-03T03:20:53;0.80;99.90
7920;DHT22;18778;47.610;9.776;2023-04-03T03:23:20;0.80;99.90
7920;DHT22;18778;47.610;9.776;2023-04-03T03:25:46;0.80;99.90
7920;DHT22;18778;47.610;9.776;2023-04-03T03:30:38;0.90;99.90
7920;DHT22;18778;47.610;9.776;2023-04-03T03:33:03;1.00;99.90
7920;DHT22;18778;47.610;9.776;2023-04-03T03:35:29;1.10;99.90
7920;DHT22;18778;47.610;9.776;2023-04-03T03:42:46;1.30;99.90
7920;DHT22;18778;47.610;9.776;2023-04-03T03:45:12;1.20;99.90
7920;DHT22;18778;47.610;9.776;2023-04-03T03:47:37;1.30;99.90
7920;DHT22;18778;47.610;9.776;2023-04-03T03:50:03;1.40;99.90
7920;DHT22;18778;47.610;9.776;2023-04-03T03:52:29;1.50;99.90
7920;DHT22;18778;47.610;9.776;2023-04-03T03:54:55;1.60;99.90
7920;DHT22;18778;47.610;9.776;2023-04-03T03:57:21;1.60;99.90
7920;DHT22;18778;47.610;9.776;2023-04-03T03:59:47;4.80;99.90
7920;DHT22;18778;47.610;9.776;2023-04-03T04:02:14;1.80;99.90
7920;DHT22;18778;47.610;9.776;2023-04-03T04:07:06;1.80;99.90
7920;DHT22;18778;47.610;9.776;2023-04-03T04:09:31;1.90;99.90
7920;DHT22;18778;47.610;9.776;2023-04-03T04:11:57;1.90;99.90
7920;DHT22;18778;47.610;9.776;2023-04-03T04:14:23;1.90;99.90
7920;DHT22;18778;47.610;9.776;2023-04-03T04:16:48;2.00;99.90
7920;DHT22;18778;47.610;9.776;2023-04-03T04:19:14;1.90;99.90
7920;DHT22;18778;47.610;9.776;2023-04-03T04:21:40;2.00;99.90
7920;DHT22;18778;47.610;9.776;2023-04-03T04:24:07;2.10;99.90
7920;DHT22;18778;47.610;9.776;2023-04-03T04:26:33;2.10;99.90
7920;DHT22;18778;47.610;9.776;2023-04-03T04:28:58;2.10;99.90
7920;DHT22;18778;47.610;9.776;2023-04-03T04:31:24;2.10;99.90
7920;DHT22;18778;47.610;9.776;2023-04-03T04:33:49;2.10;99.90
7920;DHT22;18778;47.610;9.776;2023-04-03T04:36:15;2.00;99.90
7920;DHT22;18778;47.610;9.776;2023-04-03T04:38:41;2.10;99.90
7920;DHT22;18778;47.610;9.776;2023-04-03T04:41:07;2.10;99.90
7920;DHT22;18778;47.610;9.776;2023-04-03T04:43:33;2.10;99.90
7920;DHT22;18778;47.610;9.776;2023-04-03T04:46:07;3.50;99.90
7920;DHT22;18778;47.610;9.776;2023-04-03T04:48:34;2.10;99.90
7920;DHT22;18778;47.610;9.776;2023-04-03T04:51:01;2.10;99.90
7920;DHT22;18778;47.610;9.776;2023-04-03T04:53:26;2.20;99.90
7920;DHT22;18778;47.610;9.776;2023-04-03T04:55:53;2.20;99.90
7920;DHT22;18778;47.610;9.776;2023-04-03T04:58:19;2.20;99.90
7920;DHT22;18778;47.610;9.776;2023-04-03T05:00:45;2.20;99.90
7920;DHT22;18778;47.610;9.776;2023-04-03T05:03:11;2.30;99.90
7920;DHT22;18778;47.610;9.776;2023-04-03T05:05:37;2.20;99.90
7920;DHT22;18778;47.610;9.776;2023-04-03T05:08:03;2.20;99.90
7920;DHT22;18778;47.610;9.776;2023-04-03T05:10:29;3.40;99.90
7920;DHT22;18778;47.610;9.776;2023-04-03T05:12:55;2.20;99.90
7920;DHT22;18778;47.610;9.776;2023-04-03T05:15:21;2.20;99.90
7920;DHT22;18778;47.610;9.776;2023-04-03T05:17:49;2.30;99.90
7920;DHT22;18778;47.610;9.776;2023-04-03T05:20:14;2.30;99.90
7920;DHT22;18778;47.610;9.776;2023-04-03T05:22:40;2.30;99.90
7920;DHT22;18778;47.610;9.776;2023-04-03T05:25:06;2.30;99.90
7920;DHT22;18778;47.610;9.776;2023-04-03T05:27:32;2.30;99.90
7920;DHT22;18778;47.610;9.776;2023-04-03T05:29:57;2.30;99.90
7920;DHT22;18778;47.610;9.776;2023-04-03T05:32:24;2.40;99.90
7920;DHT22;18778;47.610;9.776;2023-04-03T05:34:51;2.40;99.90
7920;DHT22;18778;47.610;9.776;2023-04-03T05:37:17;2.40;99.90
7920;DHT22;18778;47.610;9.776;2023-04-03T05:39:42;2.40;99.90
7920;DHT22;18778;47.610;9.776;2023-04-03T05:42:08;2.40;99.90
7920;DHT22;18778;47.610;9.776;2023-04-03T05:44:34;2.50;99.90
7920;DHT22;18778;47.610;9.776;2023-04-03T05:47:00;2.50;99.90
7920;DHT22;18778;47.610;9.776;2023-04-03T05:49:26;2.50;99.90
7920;DHT22;18778;47.610;9.776;2023-04-03T05:51:51;2.60;99.90
7920;DHT22;18778;47.610;9.776;2023-04-03T05:54:26;2.50;99.90
7920;DHT22;18778;47.610;9.776;2023-04-03T05:56:52;2.60;99.90
7920;DHT22;18778;47.610;9.776;2023-04-03T05:59:19;2.60;99.90
7920;DHT22;18778;47.610;9.776;2023-04-03T06:01:45;2.60;99.90
7920;DHT22;18778;47.610;9.776;2023-04-03T06:04:11;3.90;99.90
7920;DHT22;18778;47.610;9.776;2023-04-03T06:06:52;2.70;99.90
7920;DHT22;18778;47.610;9.776;2023-04-03T06:09:20;2.60;99.90
7920;DHT22;18778;47.610;9.776;2023-04-03T06:11:46;2.60;99.90
7920;DHT22;18778;47.610;9.776;2023-04-03T06:14:12;2.70;99.90
7920;DHT22;18778;47.610;9.776;2023-04-03T06:16:38;2.80;99.90
7920;DHT22;18778;47.610;9.776;2023-04-03T06:19:05;2.70;99.90
7920;DHT22;18778;47.610;9.776;2023-04-03T06:21:31;2.80;99.90
7920;DHT22;18778;47.610;9.776;2023-04-03T06:23:57;3.00;99.90
7920;DHT22;18778;47.610;9.776;2023-04-03T06:26:22;2.80;99.90
7920;DHT22;18778;47.610;9.776;2023-04-03T06:28:48;2.80;99.90
7920;DHT22;18778;47.610;9.776;2023-04-03T06:31:14;2.80;99.90
7920;DHT22;18778;47.610;9.776;2023-04-03T06:33:39;2.80;99.90
7920;DHT22;18778;47.610;9.776;2023-04-03T06:36:06;2.90;99.90
7920;DHT22;18778;47.610;9.776;2023-04-03T06:38:33;3.00;99.90
7920;DHT22;18778;47.610;9.776;2023-04-03T06:40:59;3.10;99.90
7920;DHT22;18778;47.610;9.776;2023-04-03T06:43:25;3.00;99.90
7920;DHT22;18778;47.610;9.776;2023-04-03T06:45:51;3.00;99.90
7920;DHT22;18778;47.610;9.776;2023-04-03T06:48:17;3.10;99.90
7920;DHT22;18778;47.610;9.776;2023-04-03T06:50:43;3.10;99.90
7920;DHT22;18778;47.610;9.776;2023-04-03T06:53:09;3.20;99.90
7920;DHT22;18778;47.610;9.776;2023-04-03T06:55:35;3.20;99.90
7920;DHT22;18778;47.610;9.776;2023-04-03T06:58:02;3.20;99.90
7920;DHT22;18778;47.610;9.776;2023-04-03T07:00:29;3.20;99.90
7920;DHT22;18778;47.610;9.776;2023-04-03T07:02:55;3.40;99.90
7920;DHT22;18778;47.610;9.776;2023-04-03T07:05:23;3.50;99.90
7920;DHT22;18778;47.610;9.776;2023-04-03T07:07:48;3.50;99.90
7920;DHT22;18778;47.610;9.776;2023-04-03T07:10:15;3.60;99.90
7920;DHT22;18778;47.610;9.776;2023-04-03T07:12:42;3.70;99.90
7920;DHT22;18778;47.610;9.776;2023-04-03T07:15:08;3.80;99.90
7920;DHT22;18778;47.610;9.776;2023-04-03T07:17:34;3.80;99.90
7920;DHT22;18778;47.610;9.776;2023-04-03T07:20:01;3.90;99.90
7920;DHT22;18778;47.610;9.776;2023-04-03T07:22:26;4.00;99.90
7920;DHT22;18778;47.610;9.776;2023-04-03T07:24:52;4.00;99.90
7920;DHT22;18778;47.610;9.776;2023-04-03T07:27:21;4.00;99.90
7920;DHT22;18778;47.610;9.776;2023-04-03T07:29:51;4.10;99.90
7920;DHT22;18778;47.610;9.776;2023-04-03T07:32:17;4.10;99.90
7920;DHT22;18778;47.610;9.776;2023-04-03T07:34:43;4.60;99.90
7920;DHT22;18778;47.610;9.776;2023-04-03T07:37:09;4.10;99.90
7920;DHT22;18778;47.610;9.776;2023-04-03T07:39:35;4.10;99.90
7920;DHT22;18778;47.610;9.776;2023-04-03T07:44:27;4.30;99.90
7920;DHT22;18778;47.610;9.776;2023-04-03T07:46:54;4.40;99.90
7920;DHT22;18778;47.610;9.776;2023-04-03T07:49:21;4.40;99.90
7920;DHT22;18778;47.610;9.776;2023-04-03T07:51:49;4.40;99.90
7920;DHT22;18778;47.610;9.776;2023-04-03T07:54:15;4.50;99.90
7920;DHT22;18778;47.610;9.776;2023-04-03T07:56:41;4.60;99.90
7920;DHT22;18778;47.610;9.776;2023-04-03T07:59:08;4.50;99.90
7920;DHT22;18778;47.610;9.776;2023-04-03T08:01:34;4.50;99.90
7920;DHT22;18778;47.610;9.776;2023-04-03T08:04:00;4.60;99.90
7920;DHT22;18778;47.610;9.776;2023-04-03T08:06:27;6.20;99.90
7920;DHT22;18778;47.610;9.776;2023-04-03T08:08:54;4.70;99.90
7920;DHT22;18778;47.610;9.776;2023-04-03T08:11:20;5.20;99.90
7920;DHT22;18778;47.610;9.776;2023-04-03T08:13:46;5.70;99.90
7920;DHT22;18778;47.610;9.776;2023-04-03T08:16:16;4.80;99.90
7920;DHT22;18778;47.610;9.776;2023-04-03T08:18:43;4.80;99.90
7920;DHT22;18778;47.610;9.776;2023-04-03T08:21:09;4.80;99.90
7920;DHT22;18778;47.610;9.776;2023-04-03T08:23:36;4.80;99.90
7920;DHT22;18778;47.610;9.776;2023-04-03T08:26:07;4.90;99.90
7920;DHT22;18778;47.610;9.776;2023-04-03T08:28:33;5.40;99.90
7920;DHT22;18778;47.610;9.776;2023-04-03T08:31:03;4.90;99.90
7920;DHT22;18778;47.610;9.776;2023-04-03T08:33:30;5.00;99.90
7920;DHT22;18778;47.610;9.776;2023-04-03T08:35:56;6.20;99.90
7920;DHT22;18778;47.610;9.776;2023-04-03T08:38:21;5.10;99.90
7920;DHT22;18778;47.610;9.776;2023-04-03T08:40:47;5.00;99.90
7920;DHT22;18778;47.610;9.776;2023-04-03T08:45:59;5.10;99.90
7920;DHT22;18778;47.610;9.776;2023-04-03T08:48:41;5.00;99.90
7920;DHT22;18778;47.610;9.776;2023-04-03T08:51:19;5.10;99.90
7920;DHT22;18778;47.610;9.776;2023-04-03T08:54:01;5.30;99.90
7920;DHT22;18778;47.610;9.776;2023-04-03T08:56:31;5.40;99.90
7920;DHT22;18778;47.610;9.776;2023-04-03T08:59:04;5.50;99.90
7920;DHT22;18778;47.610;9.776;2023-04-03T09:01:37;5.60;99.90
7920;DHT22;18778;47.610;9.776;2023-04-03T09:04:16;5.80;99.90
7920;DHT22;18778;47.610;9.776;2023-04-03T09:06:55;5.90;99.90
7920;DHT22;18778;47.610;9.776;2023-04-03T09:09:34;5.90;99.90
7920;DHT22;18778;47.610;9.776;2023-04-03T09:12:25;5.90;99.90
7920;DHT22;18778;47.610;9.776;2023-04-03T09:17:46;6.00;99.90
7920;DHT22;18778;47.610;9.776;2023-04-03T09:25:51;6.20;99.90
7920;DHT22;18778;47.610;9.776;2023-04-03T09:28:18;6.30;99.90
7920;DHT22;18778;47.610;9.776;2023-04-03T09:30:44;6.30;99.90
7920;DHT22;18778;47.610;9.776;2023-04-03T09:33:11;6.30;99.90
7920;DHT22;18778;47.610;9.776;2023-04-03T09:35:41;6.50;99.90
7920;DHT22;18778;47.610;9.776;2023-04-03T09:40:40;6.70;99.90
7920;DHT22;18778;47.610;9.776;2023-04-03T09:43:28;6.50;99.90
7920;DHT22;18778;47.610;9.776;2023-04-03T09:45:54;6.50;99.90
7920;DHT22;18778;47.610;9.776;2023-04-03T09:48:23;6.50;99.90
7920;DHT22;18778;47.610;9.776;2023-04-03T09:50:54;6.70;99.90
7920;DHT22;18778;47.610;9.776;2023-04-03T09:53:43;6.80;99.90
7920;DHT22;18778;47.610;9.776;2023-04-03T09:58:49;7.30;99.90
7920;DHT22;18778;47.610;9.776;2023-04-03T10:04:12;7.30;99.90
7920;DHT22;18778;47.610;9.776;2023-04-03T10:06:50;7.40;99.90
7920;DHT22;18778;47.610;9.776;2023-04-03T10:09:26;7.60;99.90
7920;DHT22;18778;47.610;9.776;2023-04-03T10:12:12;7.80;99.90
7920;DHT22;18778;47.610;9.776;2023-04-03T10:34:47;7.10;99.90
7920;DHT22;18778;47.610;9.776;2023-04-03T10:37:24;7.40;99.90
7920;DHT22;18778;47.610;9.776;2023-04-03T10:42:48;7.60;99.90
7920;DHT22;18778;47.610;9.776;2023-04-03T10:45:31;7.40;99.90
7920;DHT22;18778;47.610;9.776;2023-04-03T10:56:35;7.50;99.90
7920;DHT22;18778;47.610;9.776;2023-04-03T10:59:08;7.50;99.90
7920;DHT22;18778;47.610;9.776;2023-04-03T11:01:40;7.70;99.90
7920;DHT22;18778;47.610;9.776;2023-04-03T11:04:09;8.00;99.90
7920;DHT22;18778;47.610;9.776;2023-04-03T11:06:39;8.30;99.90
7920;DHT22;18778;47.610;9.776;2023-04-03T11:09:24;8.60;99.90
7920;DHT22;18778;47.610;9.776;2023-04-03T11:11:56;9.00;99.90
7920;DHT22;18778;47.610;9.776;2023-04-03T11:14:36;9.20;99.90
7920;DHT22;18778;47.610;9.776;2023-04-03T11:22:41;10.00;97.90
7920;DHT22;18778;47.610;9.776;2023-04-03T11:27:54;9.70;98.70
7920;DHT22;18778;47.610;9.776;2023-04-03T11:30:27;9.80;98.60
7920;DHT22;18778;47.610;9.776;2023-04-03T11:35:52;9.80;98.70
7920;DHT22;18778;47.610;9.776;2023-04-03T11:38:27;9.80;98.60
7920;DHT22;18778;47.610;9.776;2023-04-03T11:40:55;12.00;98.50
7920;DHT22;18778;47.610;9.776;2023-04-03T11:43:25;10.00;96.80
7920;DHT22;18778;47.610;9.776;2023-04-03T11:45:55;10.00;96.70
7920;DHT22;18778;47.610;9.776;2023-04-03T11:50:54;10.20;96.30
7920;DHT22;18778;47.610;9.776;2023-04-03T11:53:35;10.50;96.60
7920;DHT22;18778;47.610;9.776;2023-04-03T12:01:51;10.40;95.60
7920;DHT22;18778;47.610;9.776;2023-04-03T12:04:20;10.30;95.00
7920;DHT22;18778;47.610;9.776;2023-04-03T12:09:35;10.30;94.10
7920;DHT22;18778;47.610;9.776;2023-04-03T12:12:29;10.50;94.80
7920;DHT22;18778;47.610;9.776;2023-04-03T12:14:55;10.80;94.30
7920;DHT22;18778;47.610;9.776;2023-04-03T12:17:37;10.70;94.00
7920;DHT22;18778;47.610;9.776;2023-04-03T12:23:08;10.50;93.80
7920;DHT22;18778;47.610;9.776;2023-04-03T12:25:50;10.40;94.00
7920;DHT22;18778;47.610;9.776;2023-04-03T12:28:16;10.50;95.10
7920;DHT22;18778;47.610;9.776;2023-04-03T12:30:42;10.70;94.80
7920;DHT22;18778;47.610;9.776;2023-04-03T12:33:59;10.70;92.70
7920;DHT22;18778;47.610;9.776;2023-04-03T12:36:39;10.50;94.00
7920;DHT22;18778;47.610;9.776;2023-04-03T12:39:40;10.20;93.80
7920;DHT22;18778;47.610;9.776;2023-04-03T12:45:20;10.20;93.00
7920;DHT22;18778;47.610;9.776;2023-04-03T12:47:49;10.40;95.00
7920;DHT22;18778;47.610;9.776;2023-04-03T12:50:27;10.40;94.70
7920;DHT22;18778;47.610;9.776;2023-04-03T12:53:14;10.50;94.20
7920;DHT22;18778;47.610;9.776;2023-04-03T12:55:42;10.40;93.70
7920;DHT22;18778;47.610;9.776;2023-04-03T12:58:22;10.40;95.10
7920;DHT22;18778;47.610;9.776;2023-04-03T13:01:15;10.40;94.10
7920;DHT22;18778;47.610;9.776;2023-04-03T13:03:45;10.10;93.80
7920;DHT22;18778;47.610;9.776;2023-04-03T13:06:25;9.60;94.00
7920;DHT22;18778;47.610;9.776;2023-04-03T13:08:56;10.00;93.90
7920;DHT22;18778;47.610;9.776;2023-04-03T13:11:25;9.30;93.60
7920;DHT22;18778;47.610;9.776;2023-04-03T13:13:59;9.10;93.60
7920;DHT22;18778;47.610;9.776;2023-04-03T13:16:26;9.10;94.20
7920;DHT22;18778;47.610;9.776;2023-04-03T13:18:53;9.30;94.10
7920;DHT22;18778;47.610;9.776;2023-04-03T13:21:30;9.10;93.80
7920;DHT22;18778;47.610;9.776;2023-04-03T13:24:01;8.90;94.00
7920;DHT22;18778;47.610;9.776;2023-04-03T13:26:30;9.40;94.90
7920;DHT22;18778;47.610;9.776;2023-04-03T13:29:04;8.90;94.80
7920;DHT22;18778;47.610;9.776;2023-04-03T13:31:33;8.90;94.70
7920;DHT22;18778;47.610;9.776;2023-04-03T13:34:07;9.10;94.60
7920;DHT22;18778;47.610;9.776;2023-04-03T13:36:42;9.20;93.50
7920;DHT22;18778;47.610;9.776;2023-04-03T13:41:43;9.20;94.20
7920;DHT22;18778;47.610;9.776;2023-04-03T13:46:46;8.90;94.90
7920;DHT22;18778;47.610;9.776;2023-04-03T13:51:49;9.30;93.50
7920;DHT22;18778;47.610;9.776;2023-04-03T13:54:24;9.90;93.10
7920;DHT22;18778;47.610;9.776;2023-04-03T13:56:56;9.40;93.30
7920;DHT22;18778;47.610;9.776;2023-04-03T13:59:34;9.30;91.70
7920;DHT22;18778;47.610;9.776;2023-04-03T14:04:31;9.10;93.30
7920;DHT22;18778;47.610;9.776;2023-04-03T14:06:58;9.10;93.80
7920;DHT22;18778;47.610;9.776;2023-04-03T14:09:26;9.20;92.70
7920;DHT22;18778;47.610;9.776;2023-04-03T14:11:58;9.30;91.70
7920;DHT22;18778;47.610;9.776;2023-04-03T14:14:32;9.10;92.30
7920;DHT22;18778;47.610;9.776;2023-04-03T14:17:01;8.80;91.50
7920;DHT22;18778;47.610;9.776;2023-04-03T14:19:30;8.70;93.20
7920;DHT22;18778;47.610;9.776;2023-04-03T14:21:56;8.60;93.30
7920;DHT22;18778;47.610;9.776;2023-04-03T14:24:23;8.70;92.00
7920;DHT22;18778;47.610;9.776;2023-04-03T14:26:51;8.70;93.40
7920;DHT22;18778;47.610;9.776;2023-04-03T14:29:18;11.80;94.90
7920;DHT22;18778;47.610;9.776;2023-04-03T14:31:46;8.90;94.10
7920;DHT22;18778;47.610;9.776;2023-04-03T14:34:13;9.10;93.60
7920;DHT22;18778;47.610;9.776;2023-04-03T14:36:39;8.70;92.50
7920;DHT22;18778;47.610;9.776;2023-04-03T14:39:07;8.60;94.90
7920;DHT22;18778;47.610;9.776;2023-04-03T14:41:34;8.50;93.30
7920;DHT22;18778;47.610;9.776;2023-04-03T14:44:00;8.50;93.70
7920;DHT22;18778;47.610;9.776;2023-04-03T14:46:29;8.60;94.20
7920;DHT22;18778;47.610;9.776;2023-04-03T14:48:55;9.00;93.00
7920;DHT22;18778;47.610;9.776;2023-04-03T14:51:21;9.30;93.10
7920;DHT22;18778;47.610;9.776;2023-04-03T14:53:46;9.80;92.50
7920;DHT22;18778;47.610;9.776;2023-04-03T14:56:13;9.00;92.60
7920;DHT22;18778;47.610;9.776;2023-04-03T14:58:39;8.80;93.50
7920;DHT22;18778;47.610;9.776;2023-04-03T15:01:04;8.70;92.60
7920;DHT22;18778;47.610;9.776;2023-04-03T15:03:30;8.50;92.90
7920;DHT22;18778;47.610;9.776;2023-04-03T15:05:56;9.50;94.20
7920;DHT22;18778;47.610;9.776;2023-04-03T15:08:26;8.40;94.00
7920;DHT22;18778;47.610;9.776;2023-04-03T15:10:55;8.40;95.10
7920;DHT22;18778;47.610;9.776;2023-04-03T15:13:22;8.00;94.50
7920;DHT22;18778;47.610;9.776;2023-04-03T15:15:48;7.90;94.20
7920;DHT22;18778;47.610;9.776;2023-04-03T15:18:22;7.80;94.60
7920;DHT22;18778;47.610;9.776;2023-04-03T15:20:49;7.70;95.40
7920;DHT22;18778;47.610;9.776;2023-04-03T15:23:16;7.70;95.60
7920;DHT22;18778;47.610;9.776;2023-04-03T15:25:46;7.90;95.20
7920;DHT22;18778;47.610;9.776;2023-04-03T15:28:30;7.80;94.90
7920;DHT22;18778;47.610;9.776;2023-04-03T15:30:56;7.70;94.30
7920;DHT22;18778;47.610;9.776;2023-04-03T15:33:22;7.60;95.50
7920;DHT22;18778;47.610;9.776;2023-04-03T15:35:48;7.50;95.10
7920;DHT22;18778;47.610;9.776;2023-04-03T15:38:13;7.50;96.20
7920;DHT22;18778;47.610;9.776;2023-04-03T15:40:40;7.50;95.70
7920;DHT22;18778;47.610;9.776;2023-04-03T15:43:06;7.60;95.50
7920;DHT22;18778;47.610;9.776;2023-04-03T15:45:34;8.10;95.10
7920;DHT22;18778;47.610;9.776;2023-04-03T15:48:01;9.10;94.20
7920;DHT22;18778;47.610;9.776;2023-04-03T15:50:27;9.30;92.90
7920;DHT22;18778;47.610;9.776;2023-04-03T15:52:53;9.20;92.80
7920;DHT22;18778;47.610;9.776;2023-04-03T15:55:25;9.00;93.30
7920;DHT22;18778;47.610;9.776;2023-04-03T15:57:51;8.90;93.70
7920;DHT22;18778;47.610;9.776;2023-04-03T16:00:17;9.40;93.50
7920;DHT22;18778;47.610;9.776;2023-04-03T16:02:45;10.70;93.50
7920;DHT22;18778;47.610;9.776;2023-04-03T16:05:11;10.80;91.20
7920;DHT22;18778;47.610;9.776;2023-04-03T16:07:40;10.60;91.50
7920;DHT22;18778;47.610;9.776;2023-04-03T16:10:07;10.00;91.60
7920;DHT22;18778;47.610;9.776;2023-04-03T16:12:33;9.80;92.90
7920;DHT22;18778;47.610;9.776;2023-04-03T16:14:59;9.30;92.30
7920;DHT22;18778;47.610;9.776;2023-04-03T16:17:26;9.10;92.80
7920;DHT22;18778;47.610;9.776;2023-04-03T16:19:53;8.80;93.40
7920;DHT22;18778;47.610;9.776;2023-04-03T16:22:19;8.50;93.60
7920;DHT22;18778;47.610;9.776;2023-04-03T16:24:45;8.10;93.70
7920;DHT22;18778;47.610;9.776;2023-04-03T16:27:10;7.60;94.30
7920;DHT22;18778;47.610;9.776;2023-04-03T16:29:36;7.80;94.70
7920;DHT22;18778;47.610;9.776;2023-04-03T16:32:02;8.30;94.00
7920;DHT22;18778;47.610;9.776;2023-04-03T16:34:28;8.50;93.10
7920;DHT22;18778;47.610;9.776;2023-04-03T16:36:55;12.50;95.30
7920;DHT22;18778;47.610;9.776;2023-04-03T16:41:47;7.50;93.20
7920;DHT22;18778;47.610;9.776;2023-04-03T16:44:18;6.70;94.90
7920;DHT22;18778;47.610;9.776;2023-04-03T16:46:44;6.50;95.10
7920;DHT22;18778;47.610;9.776;2023-04-03T16:49:10;6.40;95.70
7920;DHT22;18778;47.610;9.776;2023-04-03T16:51:35;6.20;96.10
7920;DHT22;18778;47.610;9.776;2023-04-03T16:54:01;6.20;96.00
7920;DHT22;18778;47.610;9.776;2023-04-03T16:56:26;6.40;96.00
7920;DHT22;18778;47.610;9.776;2023-04-03T16:58:53;5.90;96.00
7920;DHT22;18778;47.610;9.776;2023-04-03T17:01:20;6.20;96.30
7920;DHT22;18778;47.610;9.776;2023-04-03T17:03:46;5.90;96.60
7920;DHT22;18778;47.610;9.776;2023-04-03T17:06:16;5.80;96.60
7920;DHT22;18778;47.610;9.776;2023-04-03T17:08:43;5.70;96.80
7920;DHT22;18778;47.610;9.776;2023-04-03T17:13:35;5.60;98.30
7920;DHT22;18778;47.610;9.776;2023-04-03T17:16:02;5.50;97.40
7920;DHT22;18778;47.610;9.776;2023-04-03T17:20:56;5.30;97.80
7920;DHT22;18778;47.610;9.776;2023-04-03T17:23:23;5.10;98.20
7920;DHT22;18778;47.610;9.776;2023-04-03T17:28:15;5.00;98.40
7920;DHT22;18778;47.610;9.776;2023-04-03T17:30:41;4.70;98.60
7920;DHT22;18778;47.610;9.776;2023-04-03T17:40:25;4.70;98.80
7920;DHT22;18778;47.610;9.776;2023-04-03T17:45:16;4.50;99.20
7920;DHT22;18778;47.610;9.776;2023-04-03T17:47:42;4.20;99.10
7920;DHT22;18778;47.610;9.776;2023-04-03T17:50:07;4.30;99.10
7920;DHT22;18778;47.610;9.776;2023-04-03T17:52:33;4.30;98.50
7920;DHT22;18778;47.610;9.776;2023-04-03T18:04:44;4.00;99.00
7920;DHT22;18778;47.610;9.776;2023-04-03T18:07:09;3.90;98.50
7920;DHT22;18778;47.610;9.776;2023-04-03T18:12:06;3.80;99.20
7920;DHT22;18778;47.610;9.776;2023-04-03T18:14:33;3.80;99.20
7920;DHT22;18778;47.610;9.776;2023-04-03T18:21:55;3.70;99.00
7920;DHT22;18778;47.610;9.776;2023-04-03T18:24:22;3.70;98.80
7920;DHT22;18778;47.610;9.776;2023-04-03T18:26:52;3.60;98.90
7920;DHT22;18778;47.610;9.776;2023-04-03T18:29:19;3.60;99.10
7920;DHT22;18778;47.610;9.776;2023-04-03T18:31:47;3.50;99.00
7920;DHT22;18778;47.610;9.776;2023-04-03T18:41:34;3.30;98.30
7920;DHT22;18778;47.610;9.776;2023-04-03T18:44:03;3.20;98.40
7920;DHT22;18778;47.610;9.776;2023-04-03T18:46:30;3.20;98.40
7920;DHT22;18778;47.610;9.776;2023-04-03T18:51:23;3.10;98.40
7920;DHT22;18778;47.610;9.776;2023-04-03T18:53:49;3.00;98.40
7920;DHT22;18778;47.610;9.776;2023-04-03T18:56:15;2.70;98.70
7920;DHT22;18778;47.610;9.776;2023-04-03T18:58:41;3.00;98.30
7920;DHT22;18778;47.610;9.776;2023-04-03T19:01:06;2.90;98.50
7920;DHT22;18778;47.610;9.776;2023-04-03T19:03:34;2.90;98.70
7920;DHT22;18778;47.610;9.776;2023-04-03T19:06:01;2.70;99.30
7920;DHT22;18778;47.610;9.776;2023-04-03T19:32:49;2.70;99.30
7920;DHT22;18778;47.610;9.776;2023-04-03T19:37:40;2.60;98.90